Tucson, AZ (85741)

12:13 AM MST on July 25, 2016 (GMT -0700)
| | Change Station

Elev -9999 ft 0.00 °N, 0.00 °E | Updated

Partly Cloudy
Partly Cloudy
85 °F
Feels Like 84 °F
N
15
Wind Variable Wind from SSW
Gusts mph

Today
High -- | Low -- °F
--% Chance of Precip.
Yesterday
High -- | Low -- °F
Precip. -- in
Pressure 29.88 in
Visibility 10.0 miles
Clouds Clear
Heat Index 84 °F
Dew Point 61 °F
Humidity 44%
Rainfall --
Snow Depth Not available.
5:34 AM 7:26 PM
Waning Gibbous, 68% visible
METAR KDMA 250658Z AUTO 16012KT 10SM CLR 29/14 A3002 RMK AO2 PK WND 13039/12 DZB11E24 SLP116 P0000 T02880139 403770268 $
Pressure 29.88 in
Visibility 10.0 miles
Clouds Clear
Heat Index 84 °F
Dew Point 61 °F
Humidity 44%
Rainfall --
Snow Depth Not available.
5:34 AM 7:26 PM
Waning Gibbous, 68% visible
METAR KDMA 250658Z AUTO 16012KT 10SM CLR 29/14 A3002 RMK AO2 PK WND 13039/12 DZB11E24 SLP116 P0000 T02880139 403770268 $

10-Day Weather Forecast

Almanac

Astronomy

Jul. 25, 2016 Rise Set
Actual Time
Civil Twilight
Nautical Twilight
Astronomical Twilight
Moon
Length of Visible Light
Length of Day
Tomorrow will be .
, % of the Moon is Illuminated

Today's Extremes

State Highs State Lows

Community

WunderPhotos

Upload Photos

1,927,274 photos uploaded!

WunderBlog® & News

Nearby

Air Quality

  Air Quality AQ Index Pollutant
Not available.

Snow Depth

Station Depth Elevation

Earthquake Activity

City Distance Mag. Time & Date
Minimum magnitude displayed is 2.5.

Coastal Water Temperatures

Place Temperature

Stations

Nearby Weather Stations

Station Location Temp. Windchill Dew Point Humidity Wind Precip. Elev Updated Type
                   

Watches & Warnings

There are currently no watches in effect.